createdAt,value
2023-04-16T00:04:33.172Z,9.99
2023-04-16T00:12:11.443Z,9.96
2023-04-16T00:19:45.497Z,9.97
2023-04-16T00:27:35.124Z,9.94
2023-04-16T00:35:11.646Z,9.91
2023-04-16T00:43:01.665Z,9.91
2023-04-16T00:50:55.016Z,9.89
2023-04-16T00:58:57.911Z,9.89
2023-04-16T01:06:43.861Z,9.84
2023-04-16T01:14:27.793Z,9.85
2023-04-16T01:30:03.461Z,9.81
2023-04-16T01:38:12.979Z,9.77
2023-04-16T01:46:28.652Z,9.77
2023-04-16T01:54:28.018Z,9.74
2023-04-16T02:02:16.219Z,9.71
2023-04-16T02:10:01.703Z,9.68
2023-04-16T02:26:01.925Z,9.60
2023-04-16T02:33:47.794Z,9.58
2023-04-16T02:41:30.451Z,9.54
2023-04-16T02:58:02.011Z,9.46
2023-04-16T03:05:40.327Z,9.41
2023-04-16T03:14:00.399Z,9.37
2023-04-16T03:22:20.834Z,9.35
2023-04-16T03:31:02.057Z,9.31
2023-04-16T03:38:45.140Z,9.28
2023-04-16T03:46:20.845Z,9.24
2023-04-16T03:54:16.045Z,9.20
2023-04-16T04:01:56.259Z,9.14
2023-04-16T04:09:47.588Z,9.11
2023-04-16T04:17:21.414Z,9.06
2023-04-16T04:25:27.894Z,9.05
2023-04-16T04:33:36.970Z,9.02
2023-04-16T04:41:15.539Z,9.00
2023-04-16T04:49:52.152Z,8.95
2023-04-16T04:57:27.619Z,8.94
2023-04-16T05:05:01.453Z,8.89
2023-04-16T05:12:40.333Z,8.90
2023-04-16T05:28:42.157Z,8.91
2023-04-16T05:52:48.864Z,8.92
2023-04-16T06:08:16.135Z,8.95
2023-04-16T06:15:51.765Z,8.96
2023-04-16T06:23:25.939Z,8.96
2023-04-16T06:31:01.902Z,9.01
2023-04-16T06:38:38.230Z,9.00
2023-04-16T06:46:14.010Z,9.02
2023-04-16T06:53:47.975Z,9.05
2023-04-16T07:01:23.831Z,9.07
2023-04-16T07:08:57.673Z,9.18
2023-04-16T07:16:33.193Z,9.20
2023-04-16T07:24:07.384Z,9.18
2023-04-16T07:31:43.699Z,9.24
2023-04-16T07:39:18.304Z,9.26
2023-04-16T07:46:54.066Z,9.33
2023-04-16T07:54:29.205Z,9.34
2023-04-16T08:02:06.296Z,9.34
2023-04-16T08:09:49.767Z,9.36
2023-04-16T08:17:25.550Z,9.40
2023-04-16T08:24:59.848Z,9.40
2023-04-16T08:32:35.828Z,9.39
2023-04-16T08:40:10.981Z,9.53
2023-04-16T08:55:42.431Z,9.50
2023-04-16T09:03:19.977Z,9.54
2023-04-16T09:10:55.082Z,9.58
2023-04-16T09:18:31.751Z,9.54
2023-04-16T09:26:06.661Z,9.54
2023-04-16T09:33:42.854Z,9.56
2023-04-16T09:41:17.964Z,9.60
2023-04-16T09:48:53.433Z,9.66
2023-04-16T09:56:27.500Z,9.71
2023-04-16T10:04:09.963Z,9.76
2023-04-16T10:11:44.631Z,9.76
2023-04-16T10:19:20.113Z,9.83
2023-04-16T10:34:48.164Z,9.83
2023-04-16T10:42:22.034Z,9.84
2023-04-16T10:49:57.454Z,9.92
2023-04-16T10:57:32.081Z,9.94
2023-04-16T11:05:08.488Z,9.96
2023-04-16T11:12:45.153Z,9.92
2023-04-16T11:20:22.282Z,9.93
2023-04-16T11:27:57.355Z,9.97
2023-04-16T11:43:24.564Z,10.26
2023-04-16T11:51:00.219Z,10.38
2023-04-16T11:58:34.228Z,10.55
2023-04-16T12:06:11.021Z,10.64
2023-04-16T12:13:44.962Z,10.57
2023-04-16T12:21:20.582Z,10.56
2023-04-16T12:28:54.605Z,10.48
2023-04-16T12:36:30.143Z,10.43
2023-04-16T12:44:06.813Z,10.39
2023-04-16T12:51:43.108Z,10.37
2023-04-16T12:59:20.990Z,10.40
2023-04-16T13:06:56.973Z,10.47
2023-04-16T13:14:31.526Z,10.65
2023-04-16T13:29:58.503Z,10.41
2023-04-16T13:37:34.298Z,10.39
2023-04-16T13:45:09.417Z,10.37
2023-04-16T13:52:44.700Z,10.37
2023-04-16T14:00:19.873Z,10.39
2023-04-16T14:07:55.410Z,10.42
2023-04-16T14:15:30.058Z,10.41
2023-04-16T14:23:05.388Z,10.50
2023-04-16T14:30:39.304Z,10.55
2023-04-16T14:38:14.751Z,10.61
2023-04-16T14:45:48.820Z,10.67
2023-04-16T14:53:24.515Z,10.68
2023-04-16T15:00:59.449Z,10.75
2023-04-16T15:08:35.917Z,10.84
2023-04-16T15:16:09.751Z,10.91
2023-04-16T15:23:45.049Z,10.93
2023-04-16T15:31:20.805Z,10.92
2023-04-16T15:38:56.230Z,10.92
2023-04-16T15:46:32.023Z,10.88
2023-04-16T15:54:07.527Z,10.86
2023-04-16T16:01:41.427Z,10.81
2023-04-16T16:09:16.769Z,10.80
2023-04-16T16:16:50.702Z,10.78
2023-04-16T16:24:26.492Z,10.76
2023-04-16T16:32:00.495Z,10.75
2023-04-16T16:39:38.549Z,10.62
2023-04-16T16:47:13.060Z,10.57
2023-04-16T16:54:48.412Z,10.50
2023-04-16T17:02:22.706Z,10.36
2023-04-16T17:10:01.365Z,10.29
2023-04-16T17:17:37.170Z,10.18
2023-04-16T17:33:28.052Z,10.09
2023-04-16T17:41:03.319Z,10.08
2023-04-16T17:48:37.475Z,9.94
2023-04-16T17:56:13.814Z,9.85
2023-04-16T18:03:47.902Z,9.86
2023-04-16T18:11:23.668Z,9.81
2023-04-16T18:18:57.669Z,9.79
2023-04-16T18:26:35.615Z,9.76
2023-04-16T18:34:10.176Z,9.68
2023-04-16T18:41:47.814Z,9.66
2023-04-16T18:49:21.991Z,9.55
2023-04-16T18:56:59.684Z,9.53
2023-04-16T19:04:38.160Z,9.51
2023-04-16T19:12:13.597Z,9.49
2023-04-16T19:19:47.464Z,9.44
2023-04-16T19:27:22.820Z,9.38
2023-04-16T19:34:56.653Z,9.34
2023-04-16T19:42:32.091Z,9.30
2023-04-16T19:50:06.667Z,9.21
2023-04-16T19:57:42.107Z,9.14
2023-04-16T20:05:16.421Z,9.09
2023-04-16T20:12:52.157Z,9.05
2023-04-16T20:20:28.558Z,9.01
2023-04-16T20:28:03.903Z,8.88
2023-04-16T20:35:37.911Z,8.84
2023-04-16T20:43:14.226Z,8.71
2023-04-16T20:50:48.300Z,8.68
2023-04-16T20:58:23.571Z,8.63
2023-04-16T21:05:57.541Z,8.60
2023-04-16T21:13:33.030Z,8.57
2023-04-16T21:21:07.468Z,8.51
2023-04-16T21:28:43.222Z,8.40
2023-04-16T21:36:17.268Z,8.35
2023-04-16T21:43:52.485Z,8.34
2023-04-16T21:51:29.944Z,8.24
2023-04-16T21:59:05.473Z,8.16
2023-04-16T22:06:40.767Z,8.11
2023-04-16T22:14:17.996Z,8.07
2023-04-16T22:21:52.176Z,7.97
2023-04-16T22:29:27.826Z,7.94
2023-04-16T22:37:03.619Z,7.95
2023-04-16T22:44:39.125Z,7.93
2023-04-16T22:52:13.416Z,7.89
2023-04-16T22:59:50.325Z,7.86
2023-04-16T23:07:24.262Z,7.88
2023-04-16T23:15:00.963Z,7.82
2023-04-16T23:22:35.189Z,7.78
2023-04-16T23:30:14.742Z,7.77
2023-04-16T23:37:48.915Z,7.76
2023-04-16T23:45:24.620Z,7.74
2023-04-16T23:52:58.700Z,7.69
